Terminal Aerodrome Forecast
Issued by NWS

Home | Current Version | Previous Version | Text Only | Print | Product List | Glossary On
Versions: 1 2 3 4 5 6 7 8 9 10 11 12 13 14 15 16 17 18 19 20 21 22
559
FTUS43 KDLH 281726
TAFBRD
TAF
KBRD 281726Z 2818/2918 06014G20KT P6SM VCSH OVC100
     FM290200 09006KT P6SM BKN090
     FM291400 08010KT P6SM SCT070=

USA.gov is the U.S. government's official web portal to all federal, state and local government web resources and services.